createdAt,value
2023-03-08T00:01:16.428Z,2.40
2023-03-08T00:06:11.763Z,2.50
2023-03-08T00:11:09.413Z,2.70
2023-03-08T00:16:04.128Z,2.10
2023-03-08T00:21:05.523Z,2.50
2023-03-08T00:25:58.146Z,2.20
2023-03-08T00:31:18.162Z,3.50
2023-03-08T00:36:18.235Z,2.90
2023-03-08T00:41:11.276Z,2.80
2023-03-08T00:46:04.238Z,2.40
2023-03-08T00:50:56.886Z,1.70
2023-03-08T00:55:51.573Z,2.40
2023-03-08T01:00:45.291Z,2.80
2023-03-08T01:05:43.165Z,3.20
2023-03-08T01:10:36.817Z,3.20
2023-03-08T01:15:29.764Z,3.10
2023-03-08T01:20:22.521Z,3.10
2023-03-08T01:25:15.203Z,4.00
2023-03-08T01:30:08.401Z,3.70
2023-03-08T01:35:04.542Z,4.40
2023-03-08T01:39:57.301Z,4.30
2023-03-08T01:45:01.706Z,4.10
2023-03-08T01:50:12.438Z,3.80
2023-03-08T01:55:12.917Z,3.00
2023-03-08T02:00:17.744Z,2.80
2023-03-08T02:05:13.657Z,2.80
2023-03-08T02:10:08.196Z,3.80
2023-03-08T02:15:15.452Z,3.80
2023-03-08T02:20:19.011Z,3.00
2023-03-08T02:25:23.858Z,2.80
2023-03-08T02:30:25.500Z,1.90
2023-03-08T02:35:19.944Z,2.00
2023-03-08T02:40:16.523Z,1.80
2023-03-08T02:45:14.123Z,2.00
2023-03-08T02:50:10.178Z,2.10
2023-03-08T02:55:06.730Z,1.80
2023-03-08T02:59:59.816Z,2.20
2023-03-08T03:04:53.461Z,1.10
2023-03-08T03:09:46.635Z,1.90
2023-03-08T03:14:41.191Z,1.60
2023-03-08T03:19:36.418Z,1.70
2023-03-08T03:24:37.478Z,1.80
2023-03-08T03:29:31.808Z,2.90
2023-03-08T03:34:33.166Z,1.60
2023-03-08T03:39:26.491Z,1.80
2023-03-08T03:44:19.787Z,1.80
2023-03-08T03:49:14.014Z,1.30
2023-03-08T03:54:08.607Z,2.00
2023-03-08T03:59:04.117Z,1.80
2023-03-08T04:03:59.986Z,1.80
2023-03-08T04:08:55.695Z,1.90
2023-03-08T04:13:51.336Z,2.00
2023-03-08T04:18:47.916Z,2.00
2023-03-08T04:23:43.688Z,2.70
2023-03-08T04:28:48.051Z,3.60
2023-03-08T04:33:51.266Z,3.10
2023-03-08T04:38:46.925Z,4.20
2023-03-08T04:43:56.058Z,4.00
2023-03-08T04:53:58.164Z,4.60
2023-03-08T04:58:56.801Z,4.70
2023-03-08T05:03:55.535Z,6.30
2023-03-08T05:08:58.429Z,5.40
2023-03-08T05:13:55.182Z,5.90
2023-03-08T05:19:06.694Z,6.70
2023-03-08T05:24:06.782Z,8.40
2023-03-08T05:29:08.269Z,6.80
2023-03-08T05:34:02.307Z,6.60
2023-03-08T05:39:05.128Z,8.00
2023-03-08T05:44:08.481Z,7.90
2023-03-08T05:49:02.184Z,8.50
2023-03-08T05:54:00.277Z,8.10
2023-03-08T05:59:21.388Z,8.80
2023-03-08T06:04:18.149Z,7.80
2023-03-08T06:09:30.702Z,8.30
2023-03-08T06:14:27.795Z,7.80
2023-03-08T06:19:27.474Z,5.80
2023-03-08T06:24:26.599Z,7.50
2023-03-08T06:29:23.451Z,8.90
2023-03-08T06:34:30.658Z,8.00
2023-03-08T06:39:31.861Z,9.00
2023-03-08T06:44:32.460Z,6.90
2023-03-08T06:54:22.673Z,7.30
2023-03-08T06:59:27.538Z,6.90
2023-03-08T07:04:22.578Z,8.10
2023-03-08T07:09:23.872Z,7.50
2023-03-08T07:14:25.407Z,6.50
2023-03-08T07:19:30.979Z,7.20
2023-03-08T07:24:39.404Z,5.90
2023-03-08T07:29:39.680Z,6.80
2023-03-08T07:34:32.561Z,6.20
2023-03-08T07:39:25.641Z,6.00
2023-03-08T07:44:18.635Z,6.00
2023-03-08T07:49:13.132Z,5.10
2023-03-08T07:54:13.027Z,5.40
2023-03-08T07:59:06.005Z,5.20
2023-03-08T08:04:16.343Z,5.40
2023-03-08T08:09:14.701Z,4.40
2023-03-08T08:14:09.572Z,4.40
2023-03-08T08:19:05.821Z,4.60
2023-03-08T08:24:02.401Z,4.20
2023-03-08T08:28:56.578Z,4.30
2023-03-08T08:33:54.854Z,3.70
2023-03-08T08:38:57.060Z,3.60
2023-03-08T08:43:52.425Z,4.10
2023-03-08T08:48:45.632Z,4.20
2023-03-08T08:53:39.928Z,4.30
2023-03-08T08:58:32.875Z,4.30
2023-03-08T09:03:28.498Z,4.10
2023-03-08T09:08:21.389Z,3.70
2023-03-08T09:13:17.428Z,3.90
2023-03-08T09:18:12.851Z,3.70
2023-03-08T09:23:06.926Z,3.60
2023-03-08T09:27:59.979Z,3.80
2023-03-08T09:32:52.967Z,4.50
2023-03-08T09:37:46.128Z,3.80
2023-03-08T09:42:39.626Z,3.80
2023-03-08T09:47:50.603Z,3.70
2023-03-08T09:52:50.670Z,3.10
2023-03-08T09:57:53.606Z,3.10
2023-03-08T10:02:58.764Z,3.20
2023-03-08T10:08:07.400Z,2.90
2023-03-08T10:13:25.057Z,2.90
2023-03-08T10:18:39.504Z,3.10
2023-03-08T10:23:34.160Z,3.70
2023-03-08T10:28:27.879Z,3.60
2023-03-08T10:33:27.512Z,4.00
2023-03-08T10:43:43.111Z,3.50
2023-03-08T10:48:45.586Z,3.10
2023-03-08T10:54:06.499Z,3.80
2023-03-08T10:59:00.756Z,3.00
2023-03-08T11:04:16.692Z,3.50
2023-03-08T11:09:25.220Z,3.60
2023-03-08T11:14:18.606Z,3.90
2023-03-08T11:19:20.566Z,3.80
2023-03-08T11:24:34.367Z,4.00
2023-03-08T11:29:47.581Z,3.70
2023-03-08T11:34:43.152Z,3.50
2023-03-08T11:40:11.651Z,4.90
2023-03-08T11:50:44.360Z,3.50
2023-03-08T11:56:05.159Z,4.50
2023-03-08T12:01:12.783Z,4.40
2023-03-08T12:06:28.297Z,3.60
2023-03-08T12:11:32.522Z,3.80
2023-03-08T12:16:42.449Z,4.40
2023-03-08T12:22:14.234Z,4.10
2023-03-08T12:27:47.106Z,3.50
2023-03-08T12:32:51.615Z,3.50
2023-03-08T12:37:57.150Z,3.60
2023-03-08T12:42:50.454Z,3.40
2023-03-08T12:47:43.887Z,3.50
2023-03-08T12:52:41.188Z,3.70
2023-03-08T12:57:46.603Z,3.40
2023-03-08T13:02:46.807Z,2.70
2023-03-08T13:07:49.182Z,2.70
2023-03-08T13:13:37.649Z,5.30
2023-03-08T13:18:33.826Z,2.70
2023-03-08T13:23:39.689Z,3.70
2023-03-08T13:28:47.069Z,3.00
2023-03-08T13:33:53.271Z,3.20
2023-03-08T13:38:55.478Z,3.60
2023-03-08T13:43:51.345Z,3.20
2023-03-08T13:48:54.974Z,3.30
2023-03-08T13:53:50.365Z,3.50
2023-03-08T13:58:52.960Z,3.60
2023-03-08T14:09:05.038Z,3.30
2023-03-08T14:14:01.804Z,3.30
2023-03-08T14:18:58.184Z,3.70
2023-03-08T14:24:15.989Z,3.40
2023-03-08T14:29:29.175Z,3.30
2023-03-08T14:34:25.342Z,3.50
2023-03-08T14:39:21.713Z,3.80
2023-03-08T14:44:26.621Z,4.20
2023-03-08T14:49:29.805Z,3.70
2023-03-08T14:54:43.902Z,4.50
2023-03-08T14:59:41.424Z,4.20
2023-03-08T15:04:34.276Z,4.50
2023-03-08T15:09:29.473Z,3.70
2023-03-08T15:14:22.296Z,3.50
2023-03-08T15:19:15.575Z,3.70
2023-03-08T15:24:08.859Z,4.20
2023-03-08T15:29:03.600Z,4.00
2023-03-08T15:33:56.595Z,3.90
2023-03-08T15:38:49.686Z,3.60
2023-03-08T15:43:43.043Z,3.80
2023-03-08T15:48:38.812Z,5.40
2023-03-08T15:53:35.719Z,3.00
2023-03-08T15:58:29.045Z,4.00
2023-03-08T16:03:31.116Z,4.30
2023-03-08T16:08:29.139Z,4.40
2023-03-08T16:18:16.356Z,5.70
2023-03-08T16:23:09.502Z,6.30
2023-03-08T16:28:02.317Z,5.90
2023-03-08T16:32:55.629Z,6.50
2023-03-08T16:37:48.382Z,5.90
2023-03-08T16:42:41.317Z,5.80
2023-03-08T16:47:34.139Z,7.00
2023-03-08T16:52:27.151Z,5.20
2023-03-08T16:57:21.803Z,6.10
2023-03-08T17:02:20.883Z,5.20
2023-03-08T17:07:14.160Z,5.00
2023-03-08T17:12:08.658Z,5.60
2023-03-08T17:17:01.513Z,5.50
2023-03-08T17:21:54.391Z,6.10
2023-03-08T17:26:51.349Z,6.20
2023-03-08T17:31:44.987Z,5.90
2023-03-08T17:36:37.937Z,8.00
2023-03-08T17:41:32.594Z,5.80
2023-03-08T17:46:27.764Z,6.00
2023-03-08T17:51:23.975Z,6.60
2023-03-08T17:56:22.658Z,6.80
2023-03-08T18:01:21.288Z,7.60
2023-03-08T18:06:25.924Z,7.50
2023-03-08T18:11:19.159Z,7.70
2023-03-08T18:16:12.275Z,7.30
2023-03-08T18:21:13.478Z,7.40
2023-03-08T18:26:07.029Z,8.30
2023-03-08T18:30:59.846Z,7.90
2023-03-08T18:35:59.414Z,7.60
2023-03-08T18:40:52.245Z,7.90
2023-03-08T18:45:56.686Z,9.30
2023-03-08T18:50:49.842Z,9.80
2023-03-08T18:55:53.799Z,10.20
2023-03-08T19:00:46.645Z,9.20
2023-03-08T19:05:39.473Z,9.70
2023-03-08T19:10:33.380Z,12.20
2023-03-08T19:15:26.281Z,12.20
2023-03-08T19:20:19.280Z,12.10
2023-03-08T19:25:12.052Z,12.70
2023-03-08T19:30:05.072Z,12.50
2023-03-08T19:34:57.857Z,12.90
2023-03-08T19:39:51.574Z,12.70
2023-03-08T19:44:48.465Z,11.90
2023-03-08T19:49:41.334Z,12.90
2023-03-08T19:54:34.520Z,14.50
2023-03-08T19:59:28.012Z,13.30
2023-03-08T20:04:22.062Z,13.90
2023-03-08T20:09:21.718Z,15.80
2023-03-08T20:14:14.686Z,14.50
2023-03-08T20:19:07.514Z,15.40
2023-03-08T20:24:01.163Z,14.60
2023-03-08T20:28:54.273Z,14.10
2023-03-08T20:33:47.733Z,12.10
2023-03-08T20:38:41.784Z,12.60
2023-03-08T20:43:35.115Z,13.00
2023-03-08T20:48:28.382Z,13.40
2023-03-08T20:53:21.303Z,12.80
2023-03-08T20:58:14.094Z,13.50
2023-03-08T21:03:06.959Z,12.00
2023-03-08T21:07:59.748Z,13.00
2023-03-08T21:12:52.538Z,11.70
2023-03-08T21:17:45.305Z,12.50
2023-03-08T21:22:38.610Z,11.20
2023-03-08T21:27:31.402Z,12.10
2023-03-08T21:32:26.361Z,11.40
2023-03-08T21:37:20.781Z,12.00
2023-03-08T21:42:14.289Z,11.00
2023-03-08T21:47:07.812Z,13.90
2023-03-08T21:52:00.638Z,14.00
2023-03-08T21:56:53.592Z,15.40
2023-03-08T22:01:48.541Z,14.30
2023-03-08T22:06:41.515Z,13.20
2023-03-08T22:11:34.425Z,11.90
2023-03-08T22:16:28.598Z,10.80
2023-03-08T22:21:21.748Z,10.30
2023-03-08T22:26:14.622Z,7.20
2023-03-08T22:31:16.505Z,7.80
2023-03-08T22:36:12.826Z,8.20
2023-03-08T22:41:15.157Z,7.90
2023-03-08T22:46:19.966Z,8.00
2023-03-08T22:51:13.229Z,8.10
2023-03-08T22:56:06.377Z,8.60
2023-03-08T23:00:59.183Z,9.20
2023-03-08T23:05:51.972Z,10.00
2023-03-08T23:10:44.747Z,11.60
2023-03-08T23:16:13.507Z,12.10
2023-03-08T23:21:14.585Z,12.10
2023-03-08T23:26:10.645Z,13.00
2023-03-08T23:31:25.975Z,13.00
2023-03-08T23:36:23.380Z,13.30
2023-03-08T23:41:17.423Z,13.10
2023-03-08T23:46:13.661Z,13.30
2023-03-08T23:51:09.461Z,13.60
2023-03-08T23:56:03.411Z,13.20
